sensor_id;sensor_type;location;lat;lon;timestamp;pressure;altitude;pressure_sealevel;temperature;humidity
46430;BME280;32131;53.454;-6.180;2022-12-07T00:01:52;102750.34;;;3.11;100.00
46430;BME280;32131;53.454;-6.180;2022-12-07T00:04:20;102750.75;;;3.06;100.00
46430;BME280;32131;53.454;-6.180;2022-12-07T00:06:52;102750.50;;;3.03;100.00
46430;BME280;32131;53.454;-6.180;2022-12-07T00:09:20;102747.84;;;3.01;100.00
46430;BME280;32131;53.454;-6.180;2022-12-07T00:11:50;102745.97;;;2.98;100.00
46430;BME280;32131;53.454;-6.180;2022-12-07T00:14:19;102744.28;;;2.99;100.00
46430;BME280;32131;53.454;-6.180;2022-12-07T00:16:49;102734.25;;;2.90;100.00
46430;BME280;32131;53.454;-6.180;2022-12-07T00:19:18;102735.69;;;2.87;100.00
46430;BME280;32131;53.454;-6.180;2022-12-07T00:21:46;102730.22;;;2.82;100.00
46430;BME280;32131;53.454;-6.180;2022-12-07T00:24:15;102738.38;;;2.78;100.00
46430;BME280;32131;53.454;-6.180;2022-12-07T00:26:43;102733.94;;;2.75;100.00
46430;BME280;32131;53.454;-6.180;2022-12-07T00:29:15;102726.81;;;2.71;100.00
46430;BME280;32131;53.454;-6.180;2022-12-07T00:31:43;102725.03;;;2.70;100.00
46430;BME280;32131;53.454;-6.180;2022-12-07T00:34:13;102720.81;;;2.71;100.00
46430;BME280;32131;53.454;-6.180;2022-12-07T00:36:42;102726.81;;;2.71;100.00
46430;BME280;32131;53.454;-6.180;2022-12-07T00:39:10;102719.28;;;2.73;100.00
46430;BME280;32131;53.454;-6.180;2022-12-07T00:41:40;102718.50;;;2.74;100.00
46430;BME280;32131;53.454;-6.180;2022-12-07T00:44:08;102714.06;;;2.71;100.00
46430;BME280;32131;53.454;-6.180;2022-12-07T00:46:36;102714.72;;;2.69;100.00
46430;BME280;32131;53.454;-6.180;2022-12-07T00:49:04;102716.91;;;2.64;100.00
46430;BME280;32131;53.454;-6.180;2022-12-07T00:51:32;102714.84;;;2.60;100.00
46430;BME280;32131;53.454;-6.180;2022-12-07T00:54:00;102713.06;;;2.59;100.00
46430;BME280;32131;53.454;-6.180;2022-12-07T00:56:29;102711.44;;;2.59;100.00
46430;BME280;32131;53.454;-6.180;2022-12-07T00:59:03;102718.94;;;2.58;100.00
46430;BME280;32131;53.454;-6.180;2022-12-07T01:01:33;102710.53;;;2.59;100.00
46430;BME280;32131;53.454;-6.180;2022-12-07T01:04:01;102712.31;;;2.60;100.00
46430;BME280;32131;53.454;-6.180;2022-12-07T01:06:29;102711.44;;;2.59;100.00
46430;BME280;32131;53.454;-6.180;2022-12-07T01:08:58;102715.63;;;2.59;100.00
46430;BME280;32131;53.454;-6.180;2022-12-07T01:11:28;102714.75;;;2.58;100.00
46430;BME280;32131;53.454;-6.180;2022-12-07T01:13:58;102710.63;;;2.60;100.00
46430;BME280;32131;53.454;-6.180;2022-12-07T01:16:28;102715.72;;;2.60;100.00
46430;BME280;32131;53.454;-6.180;2022-12-07T01:18:57;102716.00;;;2.63;100.00
46430;BME280;32131;53.454;-6.180;2022-12-07T01:21:26;102707.31;;;2.61;100.00
46430;BME280;32131;53.454;-6.180;2022-12-07T01:23:57;102704.66;;;2.60;100.00
46430;BME280;32131;53.454;-6.180;2022-12-07T01:26:25;102708.72;;;2.58;100.00
46430;BME280;32131;53.454;-6.180;2022-12-07T01:28:54;102704.53;;;2.58;100.00
46430;BME280;32131;53.454;-6.180;2022-12-07T01:31:25;102703.41;;;2.55;100.00
46430;BME280;32131;53.454;-6.180;2022-12-07T01:33:56;102698.16;;;2.53;100.00
46430;BME280;32131;53.454;-6.180;2022-12-07T01:36:26;102697.28;;;2.53;100.00
46430;BME280;32131;53.454;-6.180;2022-12-07T01:38:57;102684.44;;;2.51;100.00
46430;BME280;32131;53.454;-6.180;2022-12-07T01:41:28;102688.63;;;2.50;100.00
46430;BME280;32131;53.454;-6.180;2022-12-07T01:44:15;102687.84;;;2.51;100.00
46430;BME280;32131;53.454;-6.180;2022-12-07T01:46:45;102675.63;;;2.47;100.00
46430;BME280;32131;53.454;-6.180;2022-12-07T01:49:18;102681.50;;;2.46;100.00
46430;BME280;32131;53.454;-6.180;2022-12-07T01:51:49;102679.94;;;2.48;100.00
46430;BME280;32131;53.454;-6.180;2022-12-07T01:54:20;102679.94;;;2.48;100.00
46430;BME280;32131;53.454;-6.180;2022-12-07T01:56:51;102677.28;;;2.47;100.00
46430;BME280;32131;53.454;-6.180;2022-12-07T01:59:23;102679.19;;;2.49;100.00
46430;BME280;32131;53.454;-6.180;2022-12-07T02:01:53;102682.75;;;2.51;100.00
46430;BME280;32131;53.454;-6.180;2022-12-07T02:04:24;102684.28;;;2.49;100.00
46430;BME280;32131;53.454;-6.180;2022-12-07T02:06:53;102683.50;;;2.50;100.00
46430;BME280;32131;53.454;-6.180;2022-12-07T02:09:22;102683.41;;;2.49;100.00
46430;BME280;32131;53.454;-6.180;2022-12-07T02:11:51;102678.97;;;2.46;100.00
46430;BME280;32131;53.454;-6.180;2022-12-07T02:14:20;102681.25;;;2.43;100.00
46430;BME280;32131;53.454;-6.180;2022-12-07T02:16:57;102682.94;;;2.43;100.00
46430;BME280;32131;53.454;-6.180;2022-12-07T02:19:58;102680.22;;;2.41;100.00
46430;BME280;32131;53.454;-6.180;2022-12-07T02:22:59;102674.91;;;2.38;100.00
46430;BME280;32131;53.454;-6.180;2022-12-07T02:25:41;102677.19;;;2.35;100.00
46430;BME280;32131;53.454;-6.180;2022-12-07T02:28:20;102677.19;;;2.35;100.00
46430;BME280;32131;53.454;-6.180;2022-12-07T02:30:59;102677.19;;;2.35;100.00
46430;BME280;32131;53.454;-6.180;2022-12-07T02:33:32;102663.19;;;2.30;100.00
46430;BME280;32131;53.454;-6.180;2022-12-07T02:36:06;102676.56;;;2.27;100.00
46430;BME280;32131;53.454;-6.180;2022-12-07T02:38:39;102673.91;;;2.26;100.00
46430;BME280;32131;53.454;-6.180;2022-12-07T02:41:14;102674.94;;;2.28;100.00
46430;BME280;32131;53.454;-6.180;2022-12-07T02:43:46;102675.94;;;2.30;100.00
46430;BME280;32131;53.454;-6.180;2022-12-07T02:46:22;102676.19;;;2.33;100.00
46430;BME280;32131;53.454;-6.180;2022-12-07T02:48:52;102673.88;;;2.36;100.00
46430;BME280;32131;53.454;-6.180;2022-12-07T02:51:22;102676.44;;;2.36;100.00
46430;BME280;32131;53.454;-6.180;2022-12-07T02:53:50;102674.91;;;2.38;100.00
46430;BME280;32131;53.454;-6.180;2022-12-07T02:56:23;102674.00;;;2.38;100.00
46430;BME280;32131;53.454;-6.180;2022-12-07T02:59:04;102659.47;;;2.36;100.00
46430;BME280;32131;53.454;-6.180;2022-12-07T03:01:41;102662.66;;;2.34;100.00
46430;BME280;32131;53.454;-6.180;2022-12-07T03:04:26;102657.56;;;2.34;100.00
46430;BME280;32131;53.454;-6.180;2022-12-07T03:07:02;102657.56;;;2.34;100.00
46430;BME280;32131;53.454;-6.180;2022-12-07T03:09:37;102657.56;;;2.34;100.00
46430;BME280;32131;53.454;-6.180;2022-12-07T03:12:10;102657.56;;;2.34;100.00
46430;BME280;32131;53.454;-6.180;2022-12-07T03:14:42;102656.03;;;2.36;100.00
46430;BME280;32131;53.454;-6.180;2022-12-07T03:17:16;102650.94;;;2.36;100.00
46430;BME280;32131;53.454;-6.180;2022-12-07T03:19:46;102656.28;;;2.39;100.00
46430;BME280;32131;53.454;-6.180;2022-12-07T03:22:17;102660.38;;;2.37;100.00
46430;BME280;32131;53.454;-6.180;2022-12-07T03:24:48;102656.03;;;2.36;100.00
46430;BME280;32131;53.454;-6.180;2022-12-07T03:27:21;102648.38;;;2.36;100.00
46430;BME280;32131;53.454;-6.180;2022-12-07T03:29:54;102650.94;;;2.36;100.00
46430;BME280;32131;53.454;-6.180;2022-12-07T03:32:31;102651.69;;;2.35;100.00
46430;BME280;32131;53.454;-6.180;2022-12-07T03:35:03;102636.41;;;2.35;100.00
46430;BME280;32131;53.454;-6.180;2022-12-07T03:37:36;102642.28;;;2.34;100.00
46430;BME280;32131;53.454;-6.180;2022-12-07T03:40:13;102631.19;;;2.33;100.00
46430;BME280;32131;53.454;-6.180;2022-12-07T03:42:43;102637.94;;;2.33;100.00
46430;BME280;32131;53.454;-6.180;2022-12-07T03:45:11;102630.94;;;2.30;100.00
46430;BME280;32131;53.454;-6.180;2022-12-07T03:47:46;102637.72;;;2.30;100.00
46430;BME280;32131;53.454;-6.180;2022-12-07T03:50:21;102638.47;;;2.29;100.00
46430;BME280;32131;53.454;-6.180;2022-12-07T03:52:55;102639.13;;;2.26;100.00
46430;BME280;32131;53.454;-6.180;2022-12-07T03:55:27;102634.91;;;2.27;100.00
46430;BME280;32131;53.454;-6.180;2022-12-07T03:57:59;102624.72;;;2.27;100.00
46430;BME280;32131;53.454;-6.180;2022-12-07T04:00:28;102626.38;;;2.26;100.00
46430;BME280;32131;53.454;-6.180;2022-12-07T04:02:58;102626.22;;;2.25;100.00
46430;BME280;32131;53.454;-6.180;2022-12-07T04:05:26;102618.59;;;2.25;100.00
46430;BME280;32131;53.454;-6.180;2022-12-07T04:07:54;102614.50;;;2.27;100.00
46430;BME280;32131;53.454;-6.180;2022-12-07T04:10:23;102612.72;;;2.26;100.00
46430;BME280;32131;53.454;-6.180;2022-12-07T04:12:51;102618.59;;;2.25;100.00
46430;BME280;32131;53.454;-6.180;2022-12-07T04:15:19;102617.56;;;2.23;100.00
46430;BME280;32131;53.454;-6.180;2022-12-07T04:17:47;102614.03;;;2.20;100.00
46430;BME280;32131;53.454;-6.180;2022-12-07T04:20:17;102613.13;;;2.20;100.00
46430;BME280;32131;53.454;-6.180;2022-12-07T04:22:46;102612.25;;;2.19;100.00
46430;BME280;32131;53.454;-6.180;2022-12-07T04:25:14;102609.59;;;2.18;100.00
46430;BME280;32131;53.454;-6.180;2022-12-07T04:27:42;102610.97;;;2.14;100.00
46430;BME280;32131;53.454;-6.180;2022-12-07T04:30:10;102606.66;;;2.13;100.00
46430;BME280;32131;53.454;-6.180;2022-12-07T04:32:39;102602.34;;;2.12;100.00
46430;BME280;32131;53.454;-6.180;2022-12-07T04:35:08;102604.63;;;2.09;100.00
46430;BME280;32131;53.454;-6.180;2022-12-07T04:37:37;102606.31;;;2.09;100.00
46430;BME280;32131;53.454;-6.180;2022-12-07T04:40:07;102608.84;;;2.09;100.00
46430;BME280;32131;53.454;-6.180;2022-12-07T04:42:37;102605.38;;;2.08;100.00
46430;BME280;32131;53.454;-6.180;2022-12-07T04:45:07;102604.38;;;2.06;100.00
46430;BME280;32131;53.454;-6.180;2022-12-07T04:47:35;102604.38;;;2.06;100.00
46430;BME280;32131;53.454;-6.180;2022-12-07T04:50:05;102602.63;;;2.05;100.00
46430;BME280;32131;53.454;-6.180;2022-12-07T04:52:34;102600.06;;;2.05;100.00
46430;BME280;32131;53.454;-6.180;2022-12-07T04:55:04;102600.19;;;2.07;100.00
46430;BME280;32131;53.454;-6.180;2022-12-07T04:57:32;102594.44;;;2.09;100.00
46430;BME280;32131;53.454;-6.180;2022-12-07T05:00:01;102592.00;;;2.11;100.00
46430;BME280;32131;53.454;-6.180;2022-12-07T05:02:31;102595.44;;;2.11;100.00
46430;BME280;32131;53.454;-6.180;2022-12-07T05:05:00;102597.25;;;2.12;100.00
46430;BME280;32131;53.454;-6.180;2022-12-07T05:07:28;102599.78;;;2.12;100.00
46430;BME280;32131;53.454;-6.180;2022-12-07T05:09:56;102590.47;;;2.13;100.00
46430;BME280;32131;53.454;-6.180;2022-12-07T05:12:26;102592.13;;;2.12;100.00
46430;BME280;32131;53.454;-6.180;2022-12-07T05:14:54;102591.22;;;2.12;100.00
46430;BME280;32131;53.454;-6.180;2022-12-07T05:17:22;102597.34;;;2.14;100.00
46430;BME280;32131;53.454;-6.180;2022-12-07T05:19:53;102601.56;;;2.13;100.00
46430;BME280;32131;53.454;-6.180;2022-12-07T05:22:21;102601.56;;;2.13;100.00
46430;BME280;32131;53.454;-6.180;2022-12-07T05:24:52;102600.66;;;2.13;100.00
46430;BME280;32131;53.454;-6.180;2022-12-07T05:27:20;102596.47;;;2.13;100.00
46430;BME280;32131;53.454;-6.180;2022-12-07T05:29:51;102604.88;;;2.12;100.00
46430;BME280;32131;53.454;-6.180;2022-12-07T05:32:19;102603.22;;;2.13;100.00
46430;BME280;32131;53.454;-6.180;2022-12-07T05:34:47;102599.03;;;2.13;100.00
46430;BME280;32131;53.454;-6.180;2022-12-07T05:37:15;102601.44;;;2.12;100.00
46430;BME280;32131;53.454;-6.180;2022-12-07T05:39:45;102600.66;;;2.13;100.00
46430;BME280;32131;53.454;-6.180;2022-12-07T05:42:13;102594.69;;;2.12;100.00
46430;BME280;32131;53.454;-6.180;2022-12-07T05:44:41;102597.25;;;2.12;100.00
46430;BME280;32131;53.454;-6.180;2022-12-07T05:47:12;102593.13;;;2.14;100.00
46430;BME280;32131;53.454;-6.180;2022-12-07T05:49:41;102594.91;;;2.15;100.00
46430;BME280;32131;53.454;-6.180;2022-12-07T05:52:09;102600.00;;;2.15;100.00
46430;BME280;32131;53.454;-6.180;2022-12-07T05:54:37;102594.03;;;2.15;100.00
46430;BME280;32131;53.454;-6.180;2022-12-07T05:57:05;102594.03;;;2.15;100.00
46430;BME280;32131;53.454;-6.180;2022-12-07T05:59:34;102589.81;;;2.15;100.00
46430;BME280;32131;53.454;-6.180;2022-12-07T06:02:02;102590.72;;;2.16;100.00
46430;BME280;32131;53.454;-6.180;2022-12-07T06:04:34;102587.41;;;2.17;100.00
46430;BME280;32131;53.454;-6.180;2022-12-07T06:07:03;102590.06;;;2.18;100.00
46430;BME280;32131;53.454;-6.180;2022-12-07T06:09:32;102583.94;;;2.16;100.00
46430;BME280;32131;53.454;-6.180;2022-12-07T06:12:00;102584.97;;;2.18;100.00
46430;BME280;32131;53.454;-6.180;2022-12-07T06:14:46;102574.00;;;2.19;100.00
46430;BME280;32131;53.454;-6.180;2022-12-07T06:17:14;102580.63;;;2.17;100.00
46430;BME280;32131;53.454;-6.180;2022-12-07T06:19:44;102574.53;;;2.15;100.00
46430;BME280;32131;53.454;-6.180;2022-12-07T06:22:12;102574.31;;;2.12;100.00
46430;BME280;32131;53.454;-6.180;2022-12-07T06:24:43;102581.81;;;2.11;100.00
46430;BME280;32131;53.454;-6.180;2022-12-07T06:27:13;102579.16;;;2.09;100.00
46430;BME280;32131;53.454;-6.180;2022-12-07T06:29:41;102573.78;;;2.06;100.00
46430;BME280;32131;53.454;-6.180;2022-12-07T06:32:09;102573.03;;;2.07;100.00
46430;BME280;32131;53.454;-6.180;2022-12-07T06:34:38;102578.13;;;2.07;100.00
46430;BME280;32131;53.454;-6.180;2022-12-07T06:37:08;102572.03;;;2.05;100.00
46430;BME280;32131;53.454;-6.180;2022-12-07T06:39:36;102575.34;;;2.04;100.00
46430;BME280;32131;53.454;-6.180;2022-12-07T06:42:05;102569.22;;;2.02;100.00
46430;BME280;32131;53.454;-6.180;2022-12-07T06:44:33;102568.22;;;2.00;100.00
46430;BME280;32131;53.454;-6.180;2022-12-07T06:47:01;102568.22;;;2.00;100.00
46430;BME280;32131;53.454;-6.180;2022-12-07T06:49:51;102564.78;;;1.99;100.00
46430;BME280;32131;53.454;-6.180;2022-12-07T06:52:20;102563.13;;;2.00;100.00
46430;BME280;32131;53.454;-6.180;2022-12-07T06:54:48;102570.00;;;2.01;100.00
46430;BME280;32131;53.454;-6.180;2022-12-07T06:57:17;102571.66;;;2.00;100.00
46430;BME280;32131;53.454;-6.180;2022-12-07T06:59:46;102574.44;;;2.03;100.00
46430;BME280;32131;53.454;-6.180;2022-12-07T07:02:15;102574.44;;;2.03;100.00
46430;BME280;32131;53.454;-6.180;2022-12-07T07:04:43;102573.78;;;2.06;100.00
46430;BME280;32131;53.454;-6.180;2022-12-07T07:07:12;102567.81;;;2.06;100.00
46430;BME280;32131;53.454;-6.180;2022-12-07T07:09:41;102568.84;;;2.08;100.00
46430;BME280;32131;53.454;-6.180;2022-12-07T07:12:09;102572.16;;;2.07;100.00
46430;BME280;32131;53.454;-6.180;2022-12-07T07:14:37;102568.69;;;2.06;100.00
46430;BME280;32131;53.454;-6.180;2022-12-07T07:17:06;102567.81;;;2.06;100.00
46430;BME280;32131;53.454;-6.180;2022-12-07T07:19:34;102576.22;;;2.04;100.00
46430;BME280;32131;53.454;-6.180;2022-12-07T07:22:04;102570.25;;;2.04;100.00
46430;BME280;32131;53.454;-6.180;2022-12-07T07:24:32;102568.47;;;2.03;100.00
46430;BME280;32131;53.454;-6.180;2022-12-07T07:27:01;102563.38;;;2.03;100.00
46430;BME280;32131;53.454;-6.180;2022-12-07T07:29:30;102572.53;;;2.01;100.00
46430;BME280;32131;53.454;-6.180;2022-12-07T07:32:00;102566.56;;;2.00;100.00
46430;BME280;32131;53.454;-6.180;2022-12-07T07:34:33;102568.22;;;2.00;100.00
46430;BME280;32131;53.454;-6.180;2022-12-07T07:37:04;102572.28;;;1.98;100.00
46430;BME280;32131;53.454;-6.180;2022-12-07T07:39:32;102565.94;;;1.93;100.00
46430;BME280;32131;53.454;-6.180;2022-12-07T07:42:02;102565.69;;;1.89;100.00
46430;BME280;32131;53.454;-6.180;2022-12-07T07:44:30;102573.88;;;1.85;100.00
46430;BME280;32131;53.454;-6.180;2022-12-07T07:47:01;102572.75;;;1.82;100.00
46430;BME280;32131;53.454;-6.180;2022-12-07T07:49:29;102574.91;;;1.77;100.00
46430;BME280;32131;53.454;-6.180;2022-12-07T07:51:58;102573.13;;;1.76;100.00
46430;BME280;32131;53.454;-6.180;2022-12-07T07:54:26;102575.69;;;1.76;100.00
46430;BME280;32131;53.454;-6.180;2022-12-07T07:56:54;102581.53;;;1.75;100.00
46430;BME280;32131;53.454;-6.180;2022-12-07T07:59:31;102571.22;;;1.73;100.00
46430;BME280;32131;53.454;-6.180;2022-12-07T08:01:59;102577.84;;;1.71;100.00
46430;BME280;32131;53.454;-6.180;2022-12-07T08:04:28;102579.16;;;1.66;100.00
46430;BME280;32131;53.454;-6.180;2022-12-07T08:06:57;102580.03;;;1.56;100.00
46430;BME280;32131;53.454;-6.180;2022-12-07T08:09:25;102577.53;;;1.46;100.00
46430;BME280;32131;53.454;-6.180;2022-12-07T08:11:53;102577.75;;;1.39;100.00
46430;BME280;32131;53.454;-6.180;2022-12-07T08:14:21;102574.97;;;1.36;100.00
46430;BME280;32131;53.454;-6.180;2022-12-07T08:16:50;102572.66;;;1.39;100.00
46430;BME280;32131;53.454;-6.180;2022-12-07T08:19:19;102577.25;;;1.43;100.00
46430;BME280;32131;53.454;-6.180;2022-12-07T08:21:47;102573.94;;;1.44;100.00
46430;BME280;32131;53.454;-6.180;2022-12-07T08:24:15;102569.75;;;1.45;100.00
46430;BME280;32131;53.454;-6.180;2022-12-07T08:26:43;102571.41;;;1.44;100.00
46430;BME280;32131;53.454;-6.180;2022-12-07T08:29:12;102563.00;;;1.45;100.00
46430;BME280;32131;53.454;-6.180;2022-12-07T08:31:40;102571.63;;;1.47;100.00
46430;BME280;32131;53.454;-6.180;2022-12-07T08:34:11;102568.47;;;1.50;100.00
46430;BME280;32131;53.454;-6.180;2022-12-07T08:36:40;102575.47;;;1.52;100.00
46430;BME280;32131;53.454;-6.180;2022-12-07T08:39:08;102566.31;;;1.54;100.00
46430;BME280;32131;53.454;-6.180;2022-12-07T08:41:56;102569.72;;;1.55;100.00
46430;BME280;32131;53.454;-6.180;2022-12-07T08:44:25;102565.66;;;1.57;100.00
46430;BME280;32131;53.454;-6.180;2022-12-07T08:46:56;102566.53;;;1.57;100.00
46430;BME280;32131;53.454;-6.180;2022-12-07T08:49:30;102565.88;;;1.60;100.00
46430;BME280;32131;53.454;-6.180;2022-12-07T08:52:01;102568.59;;;1.62;100.00
46430;BME280;32131;53.454;-6.180;2022-12-07T08:54:33;102572.00;;;1.62;100.00
46430;BME280;32131;53.454;-6.180;2022-12-07T08:57:04;102564.13;;;1.59;100.00
46430;BME280;32131;53.454;-6.180;2022-12-07T08:59:34;102565.88;;;1.60;100.00
46430;BME280;32131;53.454;-6.180;2022-12-07T09:02:04;102559.28;;;1.62;100.00
46430;BME280;32131;53.454;-6.180;2022-12-07T09:04:33;102556.22;;;1.66;100.00
46430;BME280;32131;53.454;-6.180;2022-12-07T09:07:02;102559.16;;;1.71;100.00
46430;BME280;32131;53.454;-6.180;2022-12-07T09:09:32;102555.84;;;1.72;100.00
46430;BME280;32131;53.454;-6.180;2022-12-07T09:12:01;102559.53;;;1.76;100.00
46430;BME280;32131;53.454;-6.180;2022-12-07T09:14:29;102561.63;;;1.81;100.00
46430;BME280;32131;53.454;-6.180;2022-12-07T09:17:05;102561.38;;;1.88;100.00
46430;BME280;32131;53.454;-6.180;2022-12-07T09:19:35;102565.06;;;1.92;100.00
46430;BME280;32131;53.454;-6.180;2022-12-07T09:22:04;102556.63;;;1.93;100.00
46430;BME280;32131;53.454;-6.180;2022-12-07T09:24:32;102564.66;;;1.98;100.00
46430;BME280;32131;53.454;-6.180;2022-12-07T09:27:00;102564.66;;;1.98;100.00
46430;BME280;32131;53.454;-6.180;2022-12-07T09:29:28;102558.03;;;2.00;100.00
46430;BME280;32131;53.454;-6.180;2022-12-07T09:31:57;102560.06;;;2.04;100.00
46430;BME280;32131;53.454;-6.180;2022-12-07T09:34:25;102557.88;;;2.09;100.00
46430;BME280;32131;53.454;-6.180;2022-12-07T09:36:55;102556.56;;;2.14;100.00
46430;BME280;32131;53.454;-6.180;2022-12-07T09:39:24;102561.00;;;2.16;100.00
46430;BME280;32131;53.454;-6.180;2022-12-07T09:41:52;102562.53;;;2.14;100.00
46430;BME280;32131;53.454;-6.180;2022-12-07T09:44:23;102559.00;;;2.12;100.00
46430;BME280;32131;53.454;-6.180;2022-12-07T09:46:52;102565.88;;;2.13;100.00
46430;BME280;32131;53.454;-6.180;2022-12-07T09:49:22;102564.97;;;2.13;100.00
46430;BME280;32131;53.454;-6.180;2022-12-07T09:52:01;102558.09;;;2.12;100.00
46430;BME280;32131;53.454;-6.180;2022-12-07T09:54:30;102558.28;;;2.03;100.00
46430;BME280;32131;53.454;-6.180;2022-12-07T09:56:59;102553.97;;;1.92;100.00
46430;BME280;32131;53.454;-6.180;2022-12-07T09:59:27;102553.88;;;1.80;100.00
46430;BME280;32131;53.454;-6.180;2022-12-07T10:02:24;102549.34;;;1.76;100.00
46430;BME280;32131;53.454;-6.180;2022-12-07T10:04:53;102553.50;;;1.75;100.00
46430;BME280;32131;53.454;-6.180;2022-12-07T10:07:23;102545.09;;;1.76;100.00
46430;BME280;32131;53.454;-6.180;2022-12-07T10:09:52;102551.72;;;1.74;100.00
46430;BME280;32131;53.454;-6.180;2022-12-07T10:12:20;102550.38;;;1.67;100.00
46430;BME280;32131;53.454;-6.180;2022-12-07T10:14:56;102545.66;;;1.62;100.00
46430;BME280;32131;53.454;-6.180;2022-12-07T10:17:36;102540.19;;;1.57;100.00
46430;BME280;32131;53.454;-6.180;2022-12-07T10:20:24;102533.31;;;1.56;100.00
46430;BME280;32131;53.454;-6.180;2022-12-07T10:23:01;102533.31;;;1.56;100.00
46430;BME280;32131;53.454;-6.180;2022-12-07T10:25:31;102539.81;;;1.63;100.00
46430;BME280;32131;53.454;-6.180;2022-12-07T10:28:03;102543.88;;;1.71;100.00
46430;BME280;32131;53.454;-6.180;2022-12-07T10:30:56;102538.50;;;1.78;100.00
46430;BME280;32131;53.454;-6.180;2022-12-07T10:33:34;102530.03;;;1.89;100.00
46430;BME280;32131;53.454;-6.180;2022-12-07T10:36:18;102530.75;;;1.99;100.00
46430;BME280;32131;53.454;-6.180;2022-12-07T10:38:50;102524.50;;;2.06;100.00
46430;BME280;32131;53.454;-6.180;2022-12-07T10:41:19;102511.25;;;2.10;100.00
46430;BME280;32131;53.454;-6.180;2022-12-07T10:43:51;102516.66;;;2.14;100.00
46430;BME280;32131;53.454;-6.180;2022-12-07T10:46:43;102511.16;;;2.20;100.00
46430;BME280;32131;53.454;-6.180;2022-12-07T10:49:42;102505.66;;;2.26;100.00
46430;BME280;32131;53.454;-6.180;2022-12-07T10:52:23;102504.34;;;2.31;100.00
46430;BME280;32131;53.454;-6.180;2022-12-07T10:55:08;102510.59;;;2.34;100.00
46430;BME280;32131;53.454;-6.180;2022-12-07T10:57:50;102505.06;;;2.40;100.00
46430;BME280;32131;53.454;-6.180;2022-12-07T11:00:22;102500.31;;;2.45;100.00
46430;BME280;32131;53.454;-6.180;2022-12-07T11:03:03;102496.47;;;2.50;100.00
46430;BME280;32131;53.454;-6.180;2022-12-07T11:05:43;102494.50;;;2.58;100.00
46430;BME280;32131;53.454;-6.180;2022-12-07T11:08:18;102496.31;;;2.71;100.00
46430;BME280;32131;53.454;-6.180;2022-12-07T11:10:55;102497.00;;;2.80;100.00
46430;BME280;32131;53.454;-6.180;2022-12-07T11:13:29;102494.13;;;2.87;100.00
46430;BME280;32131;53.454;-6.180;2022-12-07T11:16:24;102498.91;;;2.94;100.00
46430;BME280;32131;53.454;-6.180;2022-12-07T11:21:56;102484.44;;;3.05;100.00
46430;BME280;32131;53.454;-6.180;2022-12-07T11:24:35;102483.09;;;3.10;100.00
46430;BME280;32131;53.454;-6.180;2022-12-07T11:27:18;102472.34;;;3.14;100.00
46430;BME280;32131;53.454;-6.180;2022-12-07T11:30:13;102474.56;;;3.22;100.00
46430;BME280;32131;53.454;-6.180;2022-12-07T11:32:51;102469.13;;;3.29;100.00
46430;BME280;32131;53.454;-6.180;2022-12-07T11:35:29;102487.44;;;3.35;99.86
46430;BME280;32131;53.454;-6.180;2022-12-07T11:38:11;102481.00;;;3.40;99.13
46430;BME280;32131;53.454;-6.180;2022-12-07T11:40:42;102473.56;;;3.43;98.75
46430;BME280;32131;53.454;-6.180;2022-12-07T11:43:20;102473.81;;;3.46;97.60
46430;BME280;32131;53.454;-6.180;2022-12-07T11:45:57;102462.00;;;3.49;97.66
46430;BME280;32131;53.454;-6.180;2022-12-07T11:48:31;102464.13;;;3.54;97.23
46430;BME280;32131;53.454;-6.180;2022-12-07T11:51:02;102455.78;;;3.57;96.52
46430;BME280;32131;53.454;-6.180;2022-12-07T11:53:35;102454.47;;;3.62;95.65
46430;BME280;32131;53.454;-6.180;2022-12-07T11:56:09;102447.91;;;3.66;96.17
46430;BME280;32131;53.454;-6.180;2022-12-07T11:58:48;102449.09;;;3.71;95.27
46430;BME280;32131;53.454;-6.180;2022-12-07T12:01:28;102436.66;;;3.75;94.89
46430;BME280;32131;53.454;-6.180;2022-12-07T12:04:06;102438.66;;;3.80;93.98
46430;BME280;32131;53.454;-6.180;2022-12-07T12:06:43;102439.00;;;3.84;93.70
46430;BME280;32131;53.454;-6.180;2022-12-07T12:09:14;102439.31;;;3.89;92.84
46430;BME280;32131;53.454;-6.180;2022-12-07T12:12:18;102425.94;;;3.93;91.23
46430;BME280;32131;53.454;-6.180;2022-12-07T12:15:21;102417.72;;;3.97;91.22
46430;BME280;32131;53.454;-6.180;2022-12-07T12:18:11;102427.50;;;4.03;90.98
46430;BME280;32131;53.454;-6.180;2022-12-07T12:20:47;102420.78;;;4.05;91.16
46430;BME280;32131;53.454;-6.180;2022-12-07T12:23:20;102416.00;;;4.09;90.83
46430;BME280;32131;53.454;-6.180;2022-12-07T12:25:51;102412.88;;;4.14;90.44
46430;BME280;32131;53.454;-6.180;2022-12-07T12:28:24;102404.53;;;4.16;90.01
46430;BME280;32131;53.454;-6.180;2022-12-07T12:31:11;102400.50;;;4.20;89.79
46430;BME280;32131;53.454;-6.180;2022-12-07T12:33:46;102403.59;;;4.28;89.39
46430;BME280;32131;53.454;-6.180;2022-12-07T12:36:23;102412.56;;;4.34;89.11
46430;BME280;32131;53.454;-6.180;2022-12-07T12:39:09;102406.19;;;4.41;88.69
46430;BME280;32131;53.454;-6.180;2022-12-07T12:41:54;102403.16;;;4.47;88.08
46430;BME280;32131;53.454;-6.180;2022-12-07T12:45:17;102392.34;;;4.51;87.05
46430;BME280;32131;53.454;-6.180;2022-12-07T12:48:27;102380.94;;;4.59;86.88
46430;BME280;32131;53.454;-6.180;2022-12-07T12:54:14;102378.59;;;4.76;87.12
46430;BME280;32131;53.454;-6.180;2022-12-07T12:56:46;102375.47;;;4.80;86.57
46430;BME280;32131;53.454;-6.180;2022-12-07T12:59:24;102379.03;;;4.82;85.94
46430;BME280;32131;53.454;-6.180;2022-12-07T13:02:09;102372.63;;;4.88;85.53
46430;BME280;32131;53.454;-6.180;2022-12-07T13:04:53;102375.59;;;4.95;84.25
46430;BME280;32131;53.454;-6.180;2022-12-07T13:07:57;102364.84;;;5.00;84.08
46430;BME280;32131;53.454;-6.180;2022-12-07T13:10:39;102362.56;;;5.05;83.52
46430;BME280;32131;53.454;-6.180;2022-12-07T13:13:31;102360.31;;;5.10;83.37
46430;BME280;32131;53.454;-6.180;2022-12-07T13:22:45;102346.81;;;5.26;82.47